Cabinda, Angola
Current Conditions -  °F | °C
As of 9:00 AM on Saturday 22 Nov 2014 (Local Time) from FCPP Reporting Station
Thunderstorm Thunderstorm  
Wind Chill: 79°   Ceiling: 1600
Heat Index: 83°   Visibility: 4mi
Dew Point: 77°   Wind: 7mph
Humidity: 94%   Direction: 150°SSE
Pressure: 29.91"   Gusts: NA
Location:  5.55°S, 12.19°E
Report Text: FCPP 220800Z 15006KT 100V180 7000 -TSRA SCT006 BKN016 FEW030CB 26/25 Q1013 TEMPO 4000 TSRA
Loading
Personal Weather Stations






























Interactive Weather Map New forecast layout! Learn more

10-Day Weather Forecast

Advertisements
Track Severe Weather on mobile